createdAt,value
2023-01-22T00:02:13.922Z,-34.20
2023-01-22T00:05:18.476Z,-34.19
2023-01-22T00:08:22.128Z,-34.21
2023-01-22T00:11:26.201Z,-33.92
2023-01-22T00:14:30.010Z,-34.08
2023-01-22T00:17:33.676Z,-34.27
2023-01-22T00:20:36.817Z,-34.39
2023-01-22T00:23:41.826Z,-34.68
2023-01-22T00:26:45.929Z,-34.80
2023-01-22T00:29:49.423Z,-35.16
2023-01-22T00:32:53.035Z,-35.43
2023-01-22T00:35:57.549Z,-35.51
2023-01-22T00:39:02.345Z,-35.55
2023-01-22T00:42:08.702Z,-35.56
2023-01-22T00:45:14.800Z,-35.37
2023-01-22T00:48:18.801Z,-35.18
2023-01-22T00:51:21.770Z,-35.11
2023-01-22T00:54:26.044Z,-35.01
2023-01-22T00:57:29.652Z,-34.60
2023-01-22T01:00:35.187Z,-34.66
2023-01-22T01:03:41.721Z,-34.28
2023-01-22T01:06:46.302Z,-33.82
2023-01-22T01:09:49.558Z,-33.55
2023-01-22T01:12:53.406Z,-33.21
2023-01-22T01:16:05.124Z,-33.08
2023-01-22T01:19:10.681Z,-32.80
2023-01-22T01:22:13.939Z,-32.56
2023-01-22T01:25:17.229Z,-32.39
2023-01-22T01:28:20.825Z,-32.28
2023-01-22T01:31:26.693Z,-32.33
2023-01-22T01:34:33.324Z,-32.08
2023-01-22T01:37:39.253Z,-31.88
2023-01-22T01:40:44.988Z,-31.77
2023-01-22T01:44:06.953Z,-31.66
2023-01-22T01:47:34.291Z,-31.76
2023-01-22T01:50:41.046Z,-32.47
2023-01-22T01:53:48.576Z,-32.67
2023-01-22T01:56:58.160Z,-32.81
2023-01-22T02:00:06.343Z,-32.67
2023-01-22T02:03:16.698Z,-32.75
2023-01-22T02:06:21.143Z,-33.06
2023-01-22T02:09:24.546Z,-33.42
2023-01-22T02:12:28.511Z,-33.51
2023-01-22T02:15:32.754Z,-33.59
2023-01-22T02:18:36.829Z,-33.60
2023-01-22T02:21:46.487Z,-33.81
2023-01-22T02:24:50.228Z,-33.76
2023-01-22T02:27:54.484Z,-33.63
2023-01-22T02:30:58.772Z,-33.43
2023-01-22T02:34:06.806Z,-33.34
2023-01-22T02:37:12.155Z,-33.38
2023-01-22T02:40:17.097Z,-33.28
2023-01-22T02:43:20.382Z,-33.14
2023-01-22T02:46:23.643Z,-32.98
2023-01-22T02:49:26.601Z,-32.41
2023-01-22T02:52:29.626Z,-32.48
2023-01-22T02:55:33.299Z,-32.30
2023-01-22T02:58:37.868Z,-31.93
2023-01-22T03:01:41.875Z,-32.01
2023-01-22T03:04:47.521Z,-31.81
2023-01-22T03:07:51.281Z,-31.65
2023-01-22T03:10:59.268Z,-31.14
2023-01-22T03:14:22.321Z,-31.07
2023-01-22T03:17:43.806Z,-30.70
2023-01-22T03:21:05.950Z,-30.61
2023-01-22T03:24:10.099Z,-30.64
2023-01-22T03:27:14.076Z,-30.54
2023-01-22T03:30:18.678Z,-30.52
2023-01-22T03:33:22.963Z,-30.26
2023-01-22T03:36:27.028Z,-30.08
2023-01-22T03:39:34.940Z,-29.85
2023-01-22T03:46:19.130Z,-29.57
2023-01-22T03:49:25.820Z,-29.37
2023-01-22T03:52:29.581Z,-29.46
2023-01-22T03:55:34.396Z,-29.08
2023-01-22T03:58:39.702Z,-28.38
2023-01-22T04:01:43.301Z,-28.59
2023-01-22T04:04:48.261Z,-28.64
2023-01-22T04:07:51.437Z,-28.64
2023-01-22T04:11:00.446Z,-27.95
2023-01-22T04:14:04.776Z,-27.88
2023-01-22T04:17:09.652Z,-27.63
2023-01-22T04:20:24.008Z,-27.78
2023-01-22T04:23:34.830Z,-27.92
2023-01-22T04:26:40.777Z,-27.39
2023-01-22T04:29:44.657Z,-27.18
2023-01-22T04:32:49.431Z,-27.74
2023-01-22T04:35:58.963Z,-27.66
2023-01-22T04:39:02.087Z,-27.60
2023-01-22T04:42:05.941Z,-27.25
2023-01-22T04:45:10.349Z,-27.40
2023-01-22T04:48:14.538Z,-27.21
2023-01-22T04:51:19.872Z,-27.42
2023-01-22T04:54:23.260Z,-27.66
2023-01-22T04:57:26.640Z,-27.86
2023-01-22T05:00:30.977Z,-27.99
2023-01-22T05:03:37.395Z,-27.63
2023-01-22T05:06:43.480Z,-27.49
2023-01-22T05:09:47.712Z,-27.38
2023-01-22T05:12:51.932Z,-27.33
2023-01-22T05:15:55.722Z,-27.36
2023-01-22T05:19:00.591Z,-27.44
2023-01-22T05:22:06.917Z,-27.21
2023-01-22T05:25:10.908Z,-26.98
2023-01-22T05:28:14.874Z,-27.14
2023-01-22T05:31:38.915Z,-26.96
2023-01-22T05:34:48.885Z,-27.15
2023-01-22T05:37:52.598Z,-27.16
2023-01-22T05:40:57.745Z,-27.10
2023-01-22T05:44:05.653Z,-26.67
2023-01-22T05:47:10.545Z,-26.35
2023-01-22T05:50:37.675Z,-26.72
2023-01-22T05:53:46.578Z,-26.77
2023-01-22T05:56:51.361Z,-26.68
2023-01-22T05:59:55.262Z,-26.78
2023-01-22T06:02:59.666Z,-26.71
2023-01-22T06:06:08.360Z,-26.48
2023-01-22T06:09:14.677Z,-25.92
2023-01-22T06:12:19.888Z,-25.66
2023-01-22T06:15:23.817Z,-25.49
2023-01-22T06:18:37.609Z,-25.34
2023-01-22T06:21:41.876Z,-25.62
2023-01-22T06:24:46.192Z,-25.83
2023-01-22T06:27:52.201Z,-25.83
2023-01-22T06:31:03.117Z,-25.36
2023-01-22T06:34:06.333Z,-25.18
2023-01-22T06:37:10.591Z,-25.09
2023-01-22T06:40:16.007Z,-24.86
2023-01-22T06:43:22.102Z,-24.66
2023-01-22T06:46:26.782Z,-24.79
2023-01-22T06:49:36.859Z,-25.19
2023-01-22T06:52:40.176Z,-25.32
2023-01-22T06:55:44.324Z,-25.39
2023-01-22T06:58:48.070Z,-25.32
2023-01-22T07:01:51.996Z,-25.30
2023-01-22T07:04:54.885Z,-25.14
2023-01-22T07:07:58.079Z,-25.28
2023-01-22T07:11:01.123Z,-25.32
2023-01-22T07:14:04.446Z,-25.37
2023-01-22T07:17:07.407Z,-25.24
2023-01-22T07:20:11.332Z,-25.24
2023-01-22T07:23:15.161Z,-25.25
2023-01-22T07:26:19.088Z,-25.20
2023-01-22T07:29:22.762Z,-25.20
2023-01-22T07:32:25.757Z,-25.14
2023-01-22T07:35:29.365Z,-25.02
2023-01-22T07:38:32.473Z,-25.13
2023-01-22T07:41:35.364Z,-24.93
2023-01-22T07:44:46.337Z,-24.83
2023-01-22T07:47:56.560Z,-24.72
2023-01-22T07:51:04.081Z,-24.82
2023-01-22T07:54:08.186Z,-24.97
2023-01-22T07:57:15.830Z,-25.01
2023-01-22T08:00:19.279Z,-24.90
2023-01-22T08:03:23.030Z,-24.92
2023-01-22T08:06:26.965Z,-24.87
2023-01-22T08:09:30.550Z,-24.84
2023-01-22T08:12:34.294Z,-24.82
2023-01-22T08:15:37.607Z,-24.82
2023-01-22T08:18:41.558Z,-24.62
2023-01-22T08:21:45.013Z,-24.54
2023-01-22T08:25:13.340Z,-24.52
2023-01-22T08:28:17.063Z,-24.63
2023-01-22T08:31:27.933Z,-24.70
2023-01-22T08:34:32.228Z,-24.82
2023-01-22T08:37:35.816Z,-24.75
2023-01-22T08:40:39.128Z,-24.91
2023-01-22T08:43:42.568Z,-25.00
2023-01-22T08:46:45.532Z,-24.96
2023-01-22T08:49:49.475Z,-25.05
2023-01-22T08:52:52.466Z,-24.96
2023-01-22T08:55:55.811Z,-24.82
2023-01-22T08:59:01.217Z,-24.85
2023-01-22T09:02:04.385Z,-24.91
2023-01-22T09:05:07.930Z,-25.08
2023-01-22T09:08:10.879Z,-25.24
2023-01-22T09:11:14.020Z,-25.39
2023-01-22T09:14:17.014Z,-25.56
2023-01-22T09:17:20.299Z,-25.75
2023-01-22T09:20:23.373Z,-26.12
2023-01-22T09:23:26.368Z,-26.30
2023-01-22T09:26:30.364Z,-26.35
2023-01-22T09:29:34.071Z,-26.23
2023-01-22T09:32:38.557Z,-26.26
2023-01-22T09:35:42.249Z,-26.30
2023-01-22T09:38:45.846Z,-26.51
2023-01-22T09:41:53.603Z,-26.62
2023-01-22T09:45:05.203Z,-26.49
2023-01-22T09:48:13.027Z,-26.41
2023-01-22T09:51:17.468Z,-26.45
2023-01-22T09:54:20.743Z,-26.48
2023-01-22T09:57:31.635Z,-26.36
2023-01-22T10:00:47.518Z,-26.35
2023-01-22T10:03:55.954Z,-26.50
2023-01-22T10:07:01.779Z,-26.68
2023-01-22T10:10:26.305Z,-26.64
2023-01-22T10:13:33.079Z,-26.46
2023-01-22T10:16:38.334Z,-26.31
2023-01-22T10:19:45.590Z,-26.36
2023-01-22T10:22:52.172Z,-26.36
2023-01-22T10:26:16.260Z,-26.44
2023-01-22T10:29:27.308Z,-26.36
2023-01-22T10:32:32.108Z,-26.45
2023-01-22T10:35:49.211Z,-26.45
2023-01-22T10:39:05.817Z,-26.59
2023-01-22T10:42:20.367Z,-26.66
2023-01-22T10:45:24.444Z,-26.67
2023-01-22T10:48:27.911Z,-26.66
2023-01-22T10:51:44.704Z,-26.58
2023-01-22T10:54:56.495Z,-26.60
2023-01-22T11:02:26.643Z,-26.88
2023-01-22T11:05:37.605Z,-26.94
2023-01-22T11:08:56.819Z,-26.98
2023-01-22T11:12:23.374Z,-26.97
2023-01-22T11:15:44.643Z,-27.03
2023-01-22T11:18:55.939Z,-27.10
2023-01-22T11:21:59.900Z,-27.04
2023-01-22T11:25:06.232Z,-27.07
2023-01-22T11:28:21.721Z,-27.07
2023-01-22T11:31:33.457Z,-27.11
2023-01-22T11:34:43.497Z,-27.08
2023-01-22T11:37:50.118Z,-26.99
2023-01-22T11:41:37.498Z,-26.92
2023-01-22T11:45:06.789Z,-26.70
2023-01-22T11:48:21.418Z,-26.69
2023-01-22T11:51:33.641Z,-26.67
2023-01-22T11:55:14.902Z,-26.62
2023-01-22T11:58:46.141Z,-26.54
2023-01-22T12:01:57.867Z,-26.57
2023-01-22T12:05:18.852Z,-26.51
2023-01-22T12:09:20.571Z,-26.39
2023-01-22T12:12:36.176Z,-26.51
2023-01-22T12:15:58.495Z,-26.58
2023-01-22T12:19:01.483Z,-26.66
2023-01-22T12:22:37.315Z,-26.60
2023-01-22T12:25:53.261Z,-26.49
2023-01-22T12:28:59.088Z,-26.49
2023-01-22T12:32:16.016Z,-26.51
2023-01-22T12:35:21.832Z,-26.53
2023-01-22T12:38:41.005Z,-26.49
2023-01-22T12:41:58.866Z,-26.31
2023-01-22T12:45:46.910Z,-26.20
2023-01-22T12:49:12.959Z,-26.13
2023-01-22T12:52:37.070Z,-26.08
2023-01-22T12:55:44.150Z,-26.02
2023-01-22T12:58:57.127Z,-25.88
2023-01-22T13:02:26.548Z,-25.87
2023-01-22T13:05:32.683Z,-25.99
2023-01-22T13:08:42.592Z,-26.02
2023-01-22T13:11:46.226Z,-26.01
2023-01-22T13:14:52.448Z,-25.79
2023-01-22T13:18:08.963Z,-25.64
2023-01-22T13:21:18.055Z,-25.65
2023-01-22T13:24:22.499Z,-25.66
2023-01-22T13:27:34.303Z,-25.70
2023-01-22T13:30:38.507Z,-25.72
2023-01-22T13:33:52.927Z,-25.65
2023-01-22T13:36:57.856Z,-25.60
2023-01-22T13:40:12.290Z,-25.52
2023-01-22T13:43:19.888Z,-25.30
2023-01-22T13:46:23.402Z,-25.15
2023-01-22T13:49:33.532Z,-25.07
2023-01-22T13:52:37.429Z,-25.15
2023-01-22T13:55:40.602Z,-25.32
2023-01-22T13:58:48.560Z,-25.21
2023-01-22T14:01:52.619Z,-25.27
2023-01-22T14:04:56.237Z,-25.14
2023-01-22T14:08:08.832Z,-25.12
2023-01-22T14:11:12.265Z,-25.09
2023-01-22T14:14:18.605Z,-25.10
2023-01-22T14:17:34.734Z,-25.02
2023-01-22T14:20:41.066Z,-25.03
2023-01-22T14:23:44.560Z,-24.93
2023-01-22T14:26:47.878Z,-24.87
2023-01-22T14:29:54.406Z,-24.74
2023-01-22T14:32:58.190Z,-24.70
2023-01-22T14:36:02.334Z,-24.79
2023-01-22T14:39:06.777Z,-24.85
2023-01-22T14:42:10.679Z,-24.67
2023-01-22T14:45:16.520Z,-24.75
2023-01-22T14:48:21.382Z,-24.79
2023-01-22T14:51:25.223Z,-24.64
2023-01-22T14:54:28.471Z,-24.63
2023-01-22T14:57:33.756Z,-24.49
2023-01-22T15:00:40.136Z,-24.57
2023-01-22T15:03:43.286Z,-24.48
2023-01-22T15:06:46.520Z,-24.46
2023-01-22T15:09:49.446Z,-24.60
2023-01-22T15:12:54.061Z,-24.54
2023-01-22T15:15:57.080Z,-24.40
2023-01-22T15:19:00.226Z,-24.50
2023-01-22T15:22:04.319Z,-24.51
2023-01-22T15:25:08.062Z,-24.60
2023-01-22T15:28:11.104Z,-24.76
2023-01-22T15:31:14.340Z,-24.84
2023-01-22T15:34:18.674Z,-24.68
2023-01-22T15:37:22.746Z,-24.67
2023-01-22T15:40:26.097Z,-24.64
2023-01-22T15:43:30.290Z,-24.83
2023-01-22T15:46:36.145Z,-24.79
2023-01-22T15:49:39.139Z,-24.85
2023-01-22T15:53:08.108Z,-24.92
2023-01-22T15:56:11.876Z,-24.79
2023-01-22T15:59:15.707Z,-24.79
2023-01-22T16:02:18.996Z,-24.74
2023-01-22T16:05:22.681Z,-24.94
2023-01-22T16:08:25.666Z,-24.81
2023-01-22T16:11:30.327Z,-24.85
2023-01-22T16:14:33.338Z,-24.75
2023-01-22T16:17:36.279Z,-24.98
2023-01-22T16:20:39.917Z,-24.97
2023-01-22T16:23:46.357Z,-24.84
2023-01-22T16:26:50.067Z,-24.79
2023-01-22T16:29:53.078Z,-24.73
2023-01-22T16:32:56.110Z,-24.85
2023-01-22T16:36:06.980Z,-25.05
2023-01-22T16:39:18.572Z,-25.00
2023-01-22T16:42:21.721Z,-24.97
2023-01-22T16:45:24.981Z,-25.03
2023-01-22T16:48:27.848Z,-25.01
2023-01-22T16:51:36.947Z,-24.97
2023-01-22T16:54:40.620Z,-25.04
2023-01-22T16:57:43.544Z,-25.17
2023-01-22T17:00:48.533Z,-25.22
2023-01-22T17:03:52.229Z,-25.13
2023-01-22T17:06:57.144Z,-25.01
2023-01-22T17:10:00.968Z,-25.02
2023-01-22T17:13:04.113Z,-24.96
2023-01-22T17:16:07.530Z,-25.01
2023-01-22T17:19:10.493Z,-25.21
2023-01-22T17:22:13.831Z,-25.06
2023-01-22T17:25:17.581Z,-25.08
2023-01-22T17:28:22.625Z,-25.09
2023-01-22T17:31:27.440Z,-25.00
2023-01-22T17:34:31.500Z,-25.02
2023-01-22T17:37:34.874Z,-25.08
2023-01-22T17:40:38.083Z,-24.97
2023-01-22T17:43:41.272Z,-24.86
2023-01-22T17:46:45.136Z,-24.76
2023-01-22T17:49:49.115Z,-24.72
2023-01-22T17:52:52.675Z,-24.85
2023-01-22T17:55:55.948Z,-24.87
2023-01-22T17:59:01.777Z,-24.84
2023-01-22T18:02:05.497Z,-24.98
2023-01-22T18:05:10.476Z,-24.96
2023-01-22T18:08:13.519Z,-24.77
2023-01-22T18:11:22.146Z,-24.94
2023-01-22T18:14:29.255Z,-24.94
2023-01-22T18:17:32.151Z,-24.86
2023-01-22T18:20:34.995Z,-24.85
2023-01-22T18:23:50.613Z,-24.92
2023-01-22T18:26:55.451Z,-24.87
2023-01-22T18:29:58.420Z,-25.03
2023-01-22T18:33:02.259Z,-24.94
2023-01-22T18:36:11.222Z,-24.91
2023-01-22T18:39:16.878Z,-24.94
2023-01-22T18:42:19.839Z,-25.04
2023-01-22T18:45:22.813Z,-24.99
2023-01-22T18:48:25.710Z,-25.07
2023-01-22T18:51:30.249Z,-25.16
2023-01-22T18:54:33.442Z,-25.03
2023-01-22T18:57:40.168Z,-24.95
2023-01-22T19:00:43.045Z,-25.13
2023-01-22T19:03:49.684Z,-25.26
2023-01-22T19:06:54.420Z,-25.17
2023-01-22T19:09:57.551Z,-24.89
2023-01-22T19:13:03.302Z,-24.85
2023-01-22T19:16:11.859Z,-25.02
2023-01-22T19:19:16.397Z,-25.17
2023-01-22T19:22:20.059Z,-25.35
2023-01-22T19:25:23.648Z,-25.40
2023-01-22T19:28:26.931Z,-25.33
2023-01-22T19:31:32.915Z,-25.31
2023-01-22T19:34:37.545Z,-25.32
2023-01-22T19:37:41.107Z,-25.16
2023-01-22T19:40:46.962Z,-25.22
2023-01-22T19:43:54.482Z,-25.32
2023-01-22T19:46:57.887Z,-25.41
2023-01-22T19:50:00.774Z,-25.44
2023-01-22T19:53:05.099Z,-25.39
2023-01-22T19:56:25.163Z,-25.45
2023-01-22T19:59:28.187Z,-25.51
2023-01-22T20:02:31.057Z,-25.55
2023-01-22T20:05:40.783Z,-25.37
2023-01-22T20:08:43.708Z,-25.41
2023-01-22T20:11:49.495Z,-25.58
2023-01-22T20:14:52.449Z,-25.66
2023-01-22T20:17:55.816Z,-25.96
2023-01-22T20:21:01.003Z,-25.92
2023-01-22T20:24:04.342Z,-25.96
2023-01-22T20:27:08.469Z,-25.81
2023-01-22T20:30:12.199Z,-25.73
2023-01-22T20:33:15.131Z,-25.82
2023-01-22T20:36:20.308Z,-25.77
2023-01-22T20:39:24.372Z,-25.90
2023-01-22T20:42:29.252Z,-26.04
2023-01-22T20:45:32.870Z,-25.98
2023-01-22T20:48:36.874Z,-25.88
2023-01-22T20:51:40.819Z,-25.77
2023-01-22T20:55:00.513Z,-25.89
2023-01-22T20:58:05.156Z,-26.01
2023-01-22T21:01:16.272Z,-26.07
2023-01-22T21:04:19.431Z,-26.16
2023-01-22T21:07:23.000Z,-26.12
2023-01-22T21:10:27.092Z,-26.07
2023-01-22T21:13:31.190Z,-26.12
2023-01-22T21:16:40.557Z,-26.06
2023-01-22T21:19:44.373Z,-26.22
2023-01-22T21:22:48.137Z,-26.26
2023-01-22T21:25:51.889Z,-26.28
2023-01-22T21:28:58.321Z,-26.45
2023-01-22T21:32:01.285Z,-26.33
2023-01-22T21:35:05.794Z,-26.35
2023-01-22T21:38:09.312Z,-26.46
2023-01-22T21:41:16.993Z,-26.43
2023-01-22T21:44:38.843Z,-26.46
2023-01-22T21:47:42.956Z,-26.54
2023-01-22T21:50:46.632Z,-26.58
2023-01-22T21:53:50.391Z,-26.66
2023-01-22T21:56:54.924Z,-26.72
2023-01-22T21:59:58.498Z,-26.72
2023-01-22T22:03:02.464Z,-26.63
2023-01-22T22:06:06.707Z,-26.57
2023-01-22T22:09:15.142Z,-26.64
2023-01-22T22:12:18.808Z,-26.74
2023-01-22T22:15:22.711Z,-26.79
2023-01-22T22:18:26.242Z,-26.83
2023-01-22T22:21:30.235Z,-26.85
2023-01-22T22:24:34.005Z,-27.01
2023-01-22T22:27:38.068Z,-27.05
2023-01-22T22:30:41.714Z,-27.17
2023-01-22T22:33:47.032Z,-27.27
2023-01-22T22:36:50.692Z,-27.20
2023-01-22T22:39:54.251Z,-27.18
2023-01-22T22:42:57.575Z,-26.97
2023-01-22T22:46:06.844Z,-26.97
2023-01-22T22:49:13.507Z,-27.18
2023-01-22T22:52:17.397Z,-27.27
2023-01-22T22:55:20.841Z,-27.28
2023-01-22T22:58:24.762Z,-27.16
2023-01-22T23:01:29.492Z,-27.25
2023-01-22T23:04:34.591Z,-27.36
2023-01-22T23:07:38.278Z,-27.45
2023-01-22T23:10:41.753Z,-27.53
2023-01-22T23:13:47.048Z,-27.59
2023-01-22T23:16:51.418Z,-27.51
2023-01-22T23:19:54.996Z,-27.55
2023-01-22T23:23:00.697Z,-27.63
2023-01-22T23:26:07.389Z,-27.62
2023-01-22T23:29:13.604Z,-27.62
2023-01-22T23:32:17.473Z,-27.71
2023-01-22T23:35:21.417Z,-27.67
2023-01-22T23:38:25.145Z,-27.80
2023-01-22T23:41:29.491Z,-27.86
2023-01-22T23:44:33.258Z,-27.86
2023-01-22T23:47:37.300Z,-27.96
2023-01-22T23:50:45.183Z,-27.98
2023-01-22T23:53:50.848Z,-27.87
2023-01-22T23:56:54.476Z,-27.86
